sensor_id;sensor_type;location;lat;lon;timestamp;pressure;altitude;pressure_sealevel;temperature;humidity
66560;BME280;53413;49.878;8.142;2023-03-03T00:00:07;100348.66;;;-1.63;94.52
66560;BME280;53413;49.878;8.142;2023-03-03T00:02:32;100354.56;;;-1.67;94.38
66560;BME280;53413;49.878;8.142;2023-03-03T00:04:58;100351.09;;;-1.69;94.04
66560;BME280;53413;49.878;8.142;2023-03-03T00:07:23;100353.63;;;-1.72;94.31
66560;BME280;53413;49.878;8.142;2023-03-03T00:09:49;100354.41;;;-1.76;93.96
66560;BME280;53413;49.878;8.142;2023-03-03T00:12:23;100356.91;;;-1.81;94.06
66560;BME280;53413;49.878;8.142;2023-03-03T00:14:49;100355.13;;;-1.85;94.02
66560;BME280;53413;49.878;8.142;2023-03-03T00:17:25;100353.25;;;-1.94;93.88
66560;BME280;53413;49.878;8.142;2023-03-03T00:19:51;100347.16;;;-1.99;95.20
66560;BME280;53413;49.878;8.142;2023-03-03T00:22:34;100359.03;;;-2.04;95.24
66560;BME280;53413;49.878;8.142;2023-03-03T00:27:51;100368.25;;;-2.15;96.91
66560;BME280;53413;49.878;8.142;2023-03-03T00:30:26;100355.34;;;-2.19;98.14
66560;BME280;53413;49.878;8.142;2023-03-03T00:32:53;100363.03;;;-2.20;98.43
66560;BME280;53413;49.878;8.142;2023-03-03T00:35:31;100367.25;;;-2.22;98.41
66560;BME280;53413;49.878;8.142;2023-03-03T00:38:01;100373.22;;;-2.25;97.17
66560;BME280;53413;49.878;8.142;2023-03-03T00:40:38;100378.34;;;-2.25;97.35
66560;BME280;53413;49.878;8.142;2023-03-03T00:43:21;100386.88;;;-2.26;98.75
66560;BME280;53413;49.878;8.142;2023-03-03T00:45:55;100383.41;;;-2.28;99.74
66560;BME280;53413;49.878;8.142;2023-03-03T00:50:57;100391.09;;;-2.28;100.00
66560;BME280;53413;49.878;8.142;2023-03-03T00:53:28;100390.19;;;-2.32;100.00
66560;BME280;53413;49.878;8.142;2023-03-03T00:55:54;100388.38;;;-2.36;100.00
66560;BME280;53413;49.878;8.142;2023-03-03T00:58:21;100385.78;;;-2.37;100.00
66560;BME280;53413;49.878;8.142;2023-03-03T01:00:50;100393.41;;;-2.42;100.00
66560;BME280;53413;49.878;8.142;2023-03-03T01:03:21;100400.19;;;-2.44;100.00
66560;BME280;53413;49.878;8.142;2023-03-03T01:05:48;100397.56;;;-2.45;100.00
66560;BME280;53413;49.878;8.142;2023-03-03T01:08:14;100394.00;;;-2.52;100.00
66560;BME280;53413;49.878;8.142;2023-03-03T01:10:46;100393.91;;;-2.57;100.00
66560;BME280;53413;49.878;8.142;2023-03-03T01:13:15;100392.97;;;-2.62;100.00
66560;BME280;53413;49.878;8.142;2023-03-03T01:15:41;100395.38;;;-2.68;100.00
66560;BME280;53413;49.878;8.142;2023-03-03T01:18:09;100382.47;;;-2.73;100.00
66560;BME280;53413;49.878;8.142;2023-03-03T01:20:36;100379.81;;;-2.78;100.00
66560;BME280;53413;49.878;8.142;2023-03-03T01:23:02;100378.88;;;-2.81;100.00
66560;BME280;53413;49.878;8.142;2023-03-03T01:25:27;100377.22;;;-2.78;100.00
66560;BME280;53413;49.878;8.142;2023-03-03T01:27:53;100378.06;;;-2.79;100.00
66560;BME280;53413;49.878;8.142;2023-03-03T01:30:19;100377.13;;;-2.84;100.00
66560;BME280;53413;49.878;8.142;2023-03-03T01:32:44;100367.59;;;-2.89;100.00
66560;BME280;53413;49.878;8.142;2023-03-03T01:35:10;100372.63;;;-2.92;100.00
66560;BME280;53413;49.878;8.142;2023-03-03T01:37:35;100373.47;;;-2.94;100.00
66560;BME280;53413;49.878;8.142;2023-03-03T01:40:02;100374.31;;;-2.93;100.00
66560;BME280;53413;49.878;8.142;2023-03-03T01:42:28;100372.59;;;-2.94;100.00
66560;BME280;53413;49.878;8.142;2023-03-03T01:45:27;100374.28;;;-2.96;100.00
66560;BME280;53413;49.878;8.142;2023-03-03T01:48:03;100377.59;;;-3.00;100.00
66560;BME280;53413;49.878;8.142;2023-03-03T01:50:31;100383.53;;;-3.01;100.00
66560;BME280;53413;49.878;8.142;2023-03-03T01:52:59;100378.34;;;-3.04;100.00
66560;BME280;53413;49.878;8.142;2023-03-03T01:55:31;100378.31;;;-3.06;100.00
66560;BME280;53413;49.878;8.142;2023-03-03T01:58:13;100381.59;;;-3.12;100.00
66560;BME280;53413;49.878;8.142;2023-03-03T02:00:41;100385.75;;;-3.17;100.00
66560;BME280;53413;49.878;8.142;2023-03-03T02:03:08;100383.97;;;-3.21;100.00
66560;BME280;53413;49.878;8.142;2023-03-03T02:05:34;100377.00;;;-3.25;100.00
66560;BME280;53413;49.878;8.142;2023-03-03T02:08:00;100372.69;;;-3.28;100.00
66560;BME280;53413;49.878;8.142;2023-03-03T02:10:26;100380.31;;;-3.29;100.00
66560;BME280;53413;49.878;8.142;2023-03-03T02:12:55;100370.06;;;-3.29;100.00
66560;BME280;53413;49.878;8.142;2023-03-03T02:15:33;100368.31;;;-3.32;100.00
66560;BME280;53413;49.878;8.142;2023-03-03T02:18:12;100361.44;;;-3.33;100.00
66560;BME280;53413;49.878;8.142;2023-03-03T02:23:54;100372.50;;;-3.35;100.00
66560;BME280;53413;49.878;8.142;2023-03-03T02:26:25;100369.03;;;-3.37;100.00
66560;BME280;53413;49.878;8.142;2023-03-03T02:28:51;100368.13;;;-3.40;100.00
66560;BME280;53413;49.878;8.142;2023-03-03T02:31:19;100364.66;;;-3.42;100.00
66560;BME280;53413;49.878;8.142;2023-03-03T02:33:48;100372.34;;;-3.42;100.00
66560;BME280;53413;49.878;8.142;2023-03-03T02:36:20;100368.91;;;-3.42;100.00
66560;BME280;53413;49.878;8.142;2023-03-03T02:38:50;100370.66;;;-3.41;100.00
66560;BME280;53413;49.878;8.142;2023-03-03T02:46:24;100371.28;;;-3.50;100.00
66560;BME280;53413;49.878;8.142;2023-03-03T02:48:49;100372.03;;;-3.54;100.00
66560;BME280;53413;49.878;8.142;2023-03-03T02:51:14;100365.06;;;-3.60;100.00
66560;BME280;53413;49.878;8.142;2023-03-03T02:53:40;100371.81;;;-3.63;100.00
66560;BME280;53413;49.878;8.142;2023-03-03T02:56:06;100367.44;;;-3.67;100.00
66560;BME280;53413;49.878;8.142;2023-03-03T02:58:34;100370.84;;;-3.68;100.00
66560;BME280;53413;49.878;8.142;2023-03-03T03:00:59;100374.22;;;-3.69;100.00
66560;BME280;53413;49.878;8.142;2023-03-03T03:03:24;100369.09;;;-3.69;100.00
66560;BME280;53413;49.878;8.142;2023-03-03T03:05:50;100373.41;;;-3.68;100.00
66560;BME280;53413;49.878;8.142;2023-03-03T03:08:15;100371.66;;;-3.69;100.00
66560;BME280;53413;49.878;8.142;2023-03-03T03:10:40;100377.59;;;-3.71;100.00
66560;BME280;53413;49.878;8.142;2023-03-03T03:13:06;100375.78;;;-3.75;100.00
66560;BME280;53413;49.878;8.142;2023-03-03T03:15:31;100379.16;;;-3.77;100.00
66560;BME280;53413;49.878;8.142;2023-03-03T03:17:56;100376.47;;;-3.82;100.00
66560;BME280;53413;49.878;8.142;2023-03-03T03:20:22;100379.03;;;-3.82;100.00
66560;BME280;53413;49.878;8.142;2023-03-03T03:22:47;100375.56;;;-3.84;100.00
66560;BME280;53413;49.878;8.142;2023-03-03T03:25:13;100381.53;;;-3.83;100.00
66560;BME280;53413;49.878;8.142;2023-03-03T03:27:38;100381.50;;;-3.85;100.00
66560;BME280;53413;49.878;8.142;2023-03-03T03:30:04;100379.78;;;-3.84;100.00
66560;BME280;53413;49.878;8.142;2023-03-03T03:32:29;100385.72;;;-3.87;100.00
66560;BME280;53413;49.878;8.142;2023-03-03T03:34:54;100383.94;;;-3.90;100.00
66560;BME280;53413;49.878;8.142;2023-03-03T03:37:20;100384.78;;;-3.89;100.00
66560;BME280;53413;49.878;8.142;2023-03-03T03:39:45;100387.28;;;-3.92;100.00
66560;BME280;53413;49.878;8.142;2023-03-03T03:42:11;100379.53;;;-3.95;100.00
66560;BME280;53413;49.878;8.142;2023-03-03T03:44:36;100378.59;;;-3.99;100.00
66560;BME280;53413;49.878;8.142;2023-03-03T03:47:02;100386.16;;;-4.02;100.00
66560;BME280;53413;49.878;8.142;2023-03-03T03:49:27;100386.16;;;-4.02;100.00
66560;BME280;53413;49.878;8.142;2023-03-03T03:51:52;100393.75;;;-4.05;100.00
66560;BME280;53413;49.878;8.142;2023-03-03T03:54:18;100387.69;;;-4.09;100.00
66560;BME280;53413;49.878;8.142;2023-03-03T03:56:43;100391.06;;;-4.10;100.00
66560;BME280;53413;49.878;8.142;2023-03-03T03:59:08;100396.91;;;-4.15;100.00
66560;BME280;53413;49.878;8.142;2023-03-03T04:01:34;100404.53;;;-4.17;100.00
66560;BME280;53413;49.878;8.142;2023-03-03T04:03:59;100398.50;;;-4.19;100.00
66560;BME280;53413;49.878;8.142;2023-03-03T04:06:24;100397.59;;;-4.21;100.00
66560;BME280;53413;49.878;8.142;2023-03-03T04:08:50;100393.28;;;-4.22;100.00
66560;BME280;53413;49.878;8.142;2023-03-03T04:11:15;100393.19;;;-4.25;100.00
66560;BME280;53413;49.878;8.142;2023-03-03T04:13:41;100395.75;;;-4.25;100.00
66560;BME280;53413;49.878;8.142;2023-03-03T04:16:07;100398.31;;;-4.25;100.00
66560;BME280;53413;49.878;8.142;2023-03-03T04:18:32;100401.69;;;-4.26;100.00
66560;BME280;53413;49.878;8.142;2023-03-03T04:20:58;100400.88;;;-4.25;100.00
66560;BME280;53413;49.878;8.142;2023-03-03T04:23:23;100404.31;;;-4.25;100.00
66560;BME280;53413;49.878;8.142;2023-03-03T04:25:49;100412.84;;;-4.24;100.00
66560;BME280;53413;49.878;8.142;2023-03-03T04:28:15;100412.84;;;-4.24;100.00
66560;BME280;53413;49.878;8.142;2023-03-03T04:30:42;100411.94;;;-4.26;100.00
66560;BME280;53413;49.878;8.142;2023-03-03T04:33:07;100410.25;;;-4.26;100.00
66560;BME280;53413;49.878;8.142;2023-03-03T04:35:33;100406.81;;;-4.26;100.00
66560;BME280;53413;49.878;8.142;2023-03-03T04:37:58;100405.13;;;-4.26;100.00
66560;BME280;53413;49.878;8.142;2023-03-03T04:40:24;100404.31;;;-4.25;100.00
66560;BME280;53413;49.878;8.142;2023-03-03T04:42:49;100405.13;;;-4.26;100.00
66560;BME280;53413;49.878;8.142;2023-03-03T04:45:14;100405.13;;;-4.26;100.00
66560;BME280;53413;49.878;8.142;2023-03-03T04:47:40;100402.59;;;-4.26;100.00
66560;BME280;53413;49.878;8.142;2023-03-03T04:50:06;100400.00;;;-4.27;100.00
66560;BME280;53413;49.878;8.142;2023-03-03T04:52:32;100412.78;;;-4.27;100.00
66560;BME280;53413;49.878;8.142;2023-03-03T04:54:58;100412.78;;;-4.27;100.00
66560;BME280;53413;49.878;8.142;2023-03-03T04:57:23;100418.72;;;-4.28;100.00
66560;BME280;53413;49.878;8.142;2023-03-03T04:59:49;100428.03;;;-4.30;100.00
66560;BME280;53413;49.878;8.142;2023-03-03T05:02:14;100426.31;;;-4.31;100.00
66560;BME280;53413;49.878;8.142;2023-03-03T05:04:39;100425.47;;;-4.30;100.00
66560;BME280;53413;49.878;8.142;2023-03-03T05:07:05;100427.16;;;-4.31;100.00
66560;BME280;53413;49.878;8.142;2023-03-03T05:09:30;100427.91;;;-4.35;100.00
66560;BME280;53413;49.878;8.142;2023-03-03T05:11:55;100428.66;;;-4.38;100.00
66560;BME280;53413;49.878;8.142;2023-03-03T05:14:21;100425.97;;;-4.42;100.00
66560;BME280;53413;49.878;8.142;2023-03-03T05:16:46;100425.97;;;-4.42;100.00
66560;BME280;53413;49.878;8.142;2023-03-03T05:19:12;100427.63;;;-4.44;100.00
66560;BME280;53413;49.878;8.142;2023-03-03T05:21:37;100429.31;;;-4.45;100.00
66560;BME280;53413;49.878;8.142;2023-03-03T05:24:09;100432.69;;;-4.46;100.00
66560;BME280;53413;49.878;8.142;2023-03-03T05:26:35;100425.00;;;-4.47;100.00
66560;BME280;53413;49.878;8.142;2023-03-03T05:29:00;100423.28;;;-4.47;100.00
66560;BME280;53413;49.878;8.142;2023-03-03T05:31:26;100424.19;;;-4.46;100.00
66560;BME280;53413;49.878;8.142;2023-03-03T05:33:52;100417.31;;;-4.47;100.00
66560;BME280;53413;49.878;8.142;2023-03-03T05:36:18;100418.06;;;-4.50;100.00
66560;BME280;53413;49.878;8.142;2023-03-03T05:38:43;100419.75;;;-4.52;100.00
66560;BME280;53413;49.878;8.142;2023-03-03T05:41:08;100419.66;;;-4.55;100.00
66560;BME280;53413;49.878;8.142;2023-03-03T05:43:34;100423.03;;;-4.56;100.00
66560;BME280;53413;49.878;8.142;2023-03-03T05:45:59;100418.63;;;-4.60;100.00
66560;BME280;53413;49.878;8.142;2023-03-03T05:48:25;100422.81;;;-4.63;100.00
66560;BME280;53413;49.878;8.142;2023-03-03T05:50:50;100436.53;;;-4.60;100.00
66560;BME280;53413;49.878;8.142;2023-03-03T05:53:16;100438.22;;;-4.61;100.00
66560;BME280;53413;49.878;8.142;2023-03-03T05:55:41;100430.59;;;-4.59;100.00
66560;BME280;53413;49.878;8.142;2023-03-03T05:58:07;100433.25;;;-4.56;100.00
66560;BME280;53413;49.878;8.142;2023-03-03T06:00:32;100435.09;;;-4.52;100.00
66560;BME280;53413;49.878;8.142;2023-03-03T06:02:58;100444.56;;;-4.48;100.00
66560;BME280;53413;49.878;8.142;2023-03-03T06:05:23;100448.97;;;-4.44;100.00
66560;BME280;53413;49.878;8.142;2023-03-03T06:07:49;100453.28;;;-4.41;100.00
66560;BME280;53413;49.878;8.142;2023-03-03T06:10:14;100457.63;;;-4.39;100.00
66560;BME280;53413;49.878;8.142;2023-03-03T06:12:40;100464.59;;;-4.35;100.00
66560;BME280;53413;49.878;8.142;2023-03-03T06:15:07;100453.56;;;-4.32;100.00
66560;BME280;53413;49.878;8.142;2023-03-03T06:17:32;100463.22;;;-4.23;100.00
66560;BME280;53413;49.878;8.142;2023-03-03T06:19:58;100464.31;;;-4.15;100.00
66560;BME280;53413;49.878;8.142;2023-03-03T06:22:23;100469.69;;;-4.06;100.00
66560;BME280;53413;49.878;8.142;2023-03-03T06:24:48;100474.16;;;-3.98;100.00
66560;BME280;53413;49.878;8.142;2023-03-03T06:27:14;100472.66;;;-3.90;100.00
66560;BME280;53413;49.878;8.142;2023-03-03T06:29:39;100476.34;;;-3.82;100.00
66560;BME280;53413;49.878;8.142;2023-03-03T06:32:05;100476.59;;;-3.73;100.00
66560;BME280;53413;49.878;8.142;2023-03-03T06:34:30;100476.00;;;-3.62;100.00
66560;BME280;53413;49.878;8.142;2023-03-03T06:36:55;100478.81;;;-3.53;100.00
66560;BME280;53413;49.878;8.142;2023-03-03T06:39:21;100474.88;;;-3.40;100.00
66560;BME280;53413;49.878;8.142;2023-03-03T06:41:47;100486.31;;;-3.27;100.00
66560;BME280;53413;49.878;8.142;2023-03-03T06:44:12;100485.78;;;-3.15;100.00
66560;BME280;53413;49.878;8.142;2023-03-03T06:46:37;100493.72;;;-3.04;100.00
66560;BME280;53413;49.878;8.142;2023-03-03T06:49:03;100495.75;;;-2.91;100.00
66560;BME280;53413;49.878;8.142;2023-03-03T06:51:32;100502.91;;;-2.79;100.00
66560;BME280;53413;49.878;8.142;2023-03-03T06:54:02;100493.75;;;-2.68;100.00
66560;BME280;53413;49.878;8.142;2023-03-03T06:56:33;100503.50;;;-2.53;100.00
66560;BME280;53413;49.878;8.142;2023-03-03T06:59:00;100507.28;;;-2.37;100.00
66560;BME280;53413;49.878;8.142;2023-03-03T07:01:30;100507.72;;;-2.17;100.00
66560;BME280;53413;49.878;8.142;2023-03-03T07:03:58;100514.94;;;-2.00;100.00
66560;BME280;53413;49.878;8.142;2023-03-03T07:06:25;100517.03;;;-1.80;100.00
66560;BME280;53413;49.878;8.142;2023-03-03T07:08:52;100521.78;;;-1.58;100.00
66560;BME280;53413;49.878;8.142;2023-03-03T07:11:20;100517.88;;;-1.37;100.00
66560;BME280;53413;49.878;8.142;2023-03-03T07:13:52;100521.78;;;-1.10;100.00
66560;BME280;53413;49.878;8.142;2023-03-03T07:16:23;100515.34;;;-0.86;100.00
66560;BME280;53413;49.878;8.142;2023-03-03T07:18:52;100523.47;;;-0.60;100.00
66560;BME280;53413;49.878;8.142;2023-03-03T07:21:30;100531.69;;;-0.27;100.00
66560;BME280;53413;49.878;8.142;2023-03-03T07:23:58;100537.28;;;0.04;100.00
66560;BME280;53413;49.878;8.142;2023-03-03T07:26:30;100541.13;;;0.37;100.00
66560;BME280;53413;49.878;8.142;2023-03-03T07:29:02;100535.84;;;2.45;100.00
66560;BME280;53413;49.878;8.142;2023-03-03T07:31:39;100532.47;;;5.52;88.53
66560;BME280;53413;49.878;8.142;2023-03-03T07:34:26;100529.56;;;8.18;71.44
66560;BME280;53413;49.878;8.142;2023-03-03T07:37:00;100536.94;;;9.89;nan
66560;BME280;53413;49.878;8.142;2023-03-03T07:39:39;100533.34;;;11.39;56.25
66560;BME280;53413;49.878;8.142;2023-03-03T07:44:38;100535.50;;;13.64;51.17
66560;BME280;53413;49.878;8.142;2023-03-03T07:47:37;100535.50;;;14.44;49.24
66560;BME280;53413;49.878;8.142;2023-03-03T07:50:18;100538.88;;;15.40;47.13
66560;BME280;53413;49.878;8.142;2023-03-03T07:52:56;100544.09;;;16.12;45.70
66560;BME280;53413;49.878;8.142;2023-03-03T07:55:32;100530.53;;;16.84;44.87
66560;BME280;53413;49.878;8.142;2023-03-03T07:58:14;100543.22;;;17.56;43.13
66560;BME280;53413;49.878;8.142;2023-03-03T08:03:16;100550.56;;;17.50;42.49
66560;BME280;53413;49.878;8.142;2023-03-03T08:05:46;100545.03;;;18.14;42.35
66560;BME280;53413;49.878;8.142;2023-03-03T08:10:58;100550.72;;;19.21;39.45
66560;BME280;53413;49.878;8.142;2023-03-03T08:16:17;100551.91;;;19.83;38.41
66560;BME280;53413;49.878;8.142;2023-03-03T08:18:47;100549.09;;;20.12;37.79
66560;BME280;53413;49.878;8.142;2023-03-03T08:21:26;100543.44;;;20.67;36.35
66560;BME280;53413;49.878;8.142;2023-03-03T08:23:51;100535.13;;;21.09;36.62
66560;BME280;53413;49.878;8.142;2023-03-03T08:26:18;100546.91;;;21.77;35.19
66560;BME280;53413;49.878;8.142;2023-03-03T08:28:45;100546.69;;;22.14;34.55
66560;BME280;53413;49.878;8.142;2023-03-03T08:31:10;100553.09;;;21.53;34.31
66560;BME280;53413;49.878;8.142;2023-03-03T08:33:36;100555.28;;;21.00;35.21
66560;BME280;53413;49.878;8.142;2023-03-03T08:36:02;100559.31;;;21.05;34.85
66560;BME280;53413;49.878;8.142;2023-03-03T08:38:27;100560.97;;;21.19;34.40
66560;BME280;53413;49.878;8.142;2023-03-03T08:40:53;100558.00;;;21.60;34.74
66560;BME280;53413;49.878;8.142;2023-03-03T08:43:18;100565.94;;;21.84;34.19
66560;BME280;53413;49.878;8.142;2023-03-03T08:45:48;100552.28;;;22.11;33.90
66560;BME280;53413;49.878;8.142;2023-03-03T08:48:14;100553.75;;;22.61;33.18
66560;BME280;53413;49.878;8.142;2023-03-03T08:50:41;100547.66;;;22.59;33.21
66560;BME280;53413;49.878;8.142;2023-03-03T08:53:07;100550.94;;;23.06;32.35
66560;BME280;53413;49.878;8.142;2023-03-03T08:55:32;100559.56;;;23.10;32.09
66560;BME280;53413;49.878;8.142;2023-03-03T08:57:58;100550.69;;;23.21;31.72
66560;BME280;53413;49.878;8.142;2023-03-03T09:00:23;100555.94;;;23.44;31.57
66560;BME280;53413;49.878;8.142;2023-03-03T09:02:50;100556.09;;;22.98;32.02
66560;BME280;53413;49.878;8.142;2023-03-03T09:05:17;100560.25;;;22.91;31.79
66560;BME280;53413;49.878;8.142;2023-03-03T09:07:43;100561.03;;;23.47;31.71
66560;BME280;53413;49.878;8.142;2023-03-03T09:10:11;100565.09;;;23.62;31.54
66560;BME280;53413;49.878;8.142;2023-03-03T09:12:40;100566.06;;;23.82;30.81
66560;BME280;53413;49.878;8.142;2023-03-03T09:15:21;100564.25;;;23.29;31.18
66560;BME280;53413;49.878;8.142;2023-03-03T09:17:47;100564.44;;;23.49;30.93
66560;BME280;53413;49.878;8.142;2023-03-03T09:22:43;100568.50;;;22.88;31.05
66560;BME280;53413;49.878;8.142;2023-03-03T09:25:34;100569.91;;;22.59;31.33
66560;BME280;53413;49.878;8.142;2023-03-03T09:28:01;100568.31;;;22.45;32.08
66560;BME280;53413;49.878;8.142;2023-03-03T09:30:38;100572.44;;;22.27;31.57
66560;BME280;53413;49.878;8.142;2023-03-03T09:33:40;100578.56;;;21.93;32.04
66560;BME280;53413;49.878;8.142;2023-03-03T09:36:23;100577.72;;;21.81;32.59
66560;BME280;53413;49.878;8.142;2023-03-03T09:38:49;100586.69;;;21.80;32.72
66560;BME280;53413;49.878;8.142;2023-03-03T09:44:17;100577.63;;;21.59;32.51
66560;BME280;53413;49.878;8.142;2023-03-03T09:57:29;100593.47;;;21.00;33.47
66560;BME280;53413;49.878;8.142;2023-03-03T10:00:38;100604.84;;;20.39;34.14
66560;BME280;53413;49.878;8.142;2023-03-03T10:10:59;100588.84;;;20.52;34.10
66560;BME280;53413;49.878;8.142;2023-03-03T10:16:19;100605.94;;;19.30;34.94
66560;BME280;53413;49.878;8.142;2023-03-03T10:18:57;100607.13;;;17.96;37.19
66560;BME280;53413;49.878;8.142;2023-03-03T10:21:38;100616.63;;;15.89;40.15
66560;BME280;53413;49.878;8.142;2023-03-03T10:27:11;100616.13;;;13.00;45.93
66560;BME280;53413;49.878;8.142;2023-03-03T10:32:57;100617.84;;;12.05;48.91
66560;BME280;53413;49.878;8.142;2023-03-03T10:46:05;100618.03;;;10.88;53.10
66560;BME280;53413;49.878;8.142;2023-03-03T10:49:18;100626.59;;;10.93;53.40
66560;BME280;53413;49.878;8.142;2023-03-03T10:57:29;100619.19;;;10.14;54.54
66560;BME280;53413;49.878;8.142;2023-03-03T11:05:20;100627.53;;;9.60;55.81
66560;BME280;53413;49.878;8.142;2023-03-03T11:07:56;100627.69;;;9.53;56.83
66560;BME280;53413;49.878;8.142;2023-03-03T11:10:50;100629.47;;;9.51;57.50
66560;BME280;53413;49.878;8.142;2023-03-03T11:22:08;100633.75;;;9.54;58.74
66560;BME280;53413;49.878;8.142;2023-03-03T11:29:51;100625.09;;;9.52;58.55
66560;BME280;53413;49.878;8.142;2023-03-03T11:33:33;100627.75;;;9.50;59.15
66560;BME280;53413;49.878;8.142;2023-03-03T11:35:53;100620.66;;;9.55;58.77
66560;BME280;53413;49.878;8.142;2023-03-03T11:38:26;100628.41;;;9.60;59.16
66560;BME280;53413;49.878;8.142;2023-03-03T11:40:58;100619.06;;;9.48;58.98
66560;BME280;53413;49.878;8.142;2023-03-03T11:43:53;100619.13;;;9.45;59.57
66560;BME280;53413;49.878;8.142;2023-03-03T11:46:54;100610.28;;;9.51;59.54
66560;BME280;53413;49.878;8.142;2023-03-03T11:49:42;100612.81;;;9.55;59.03
66560;BME280;53413;49.878;8.142;2023-03-03T11:57:39;100601.94;;;9.73;58.62
66560;BME280;53413;49.878;8.142;2023-03-03T12:00:28;100595.56;;;9.81;59.06
66560;BME280;53413;49.878;8.142;2023-03-03T12:08:35;100593.63;;;9.90;57.66
66560;BME280;53413;49.878;8.142;2023-03-03T12:29:29;100568.94;;;9.98;57.42
66560;BME280;53413;49.878;8.142;2023-03-03T12:34:36;100562.22;;;9.90;57.46
66560;BME280;53413;49.878;8.142;2023-03-03T12:39:49;100561.78;;;10.07;58.01
66560;BME280;53413;49.878;8.142;2023-03-03T12:42:33;100545.16;;;10.08;57.75
66560;BME280;53413;49.878;8.142;2023-03-03T12:48:14;100544.16;;;10.12;57.48
66560;BME280;53413;49.878;8.142;2023-03-03T12:51:04;100535.38;;;10.14;57.46
66560;BME280;53413;49.878;8.142;2023-03-03T12:53:47;100540.44;;;10.21;57.42
66560;BME280;53413;49.878;8.142;2023-03-03T12:58:51;100530.69;;;10.26;57.66
66560;BME280;53413;49.878;8.142;2023-03-03T13:05:08;100519.19;;;10.31;56.95
66560;BME280;53413;49.878;8.142;2023-03-03T13:10:29;100511.13;;;10.39;57.44
66560;BME280;53413;49.878;8.142;2023-03-03T13:13:12;100520.44;;;10.50;57.16
66560;BME280;53413;49.878;8.142;2023-03-03T13:21:12;100510.44;;;10.31;57.54
66560;BME280;53413;49.878;8.142;2023-03-03T13:26:39;100514.78;;;10.32;57.43
66560;BME280;53413;49.878;8.142;2023-03-03T13:29:25;100508.78;;;10.28;57.69
66560;BME280;53413;49.878;8.142;2023-03-03T13:31:58;100512.22;;;10.30;57.26
66560;BME280;53413;49.878;8.142;2023-03-03T13:34:34;100514.78;;;10.32;57.61
66560;BME280;53413;49.878;8.142;2023-03-03T13:39:59;100508.56;;;10.36;57.00
66560;BME280;53413;49.878;8.142;2023-03-03T13:42:38;100506.78;;;10.38;57.48
66560;BME280;53413;49.878;8.142;2023-03-03T13:47:52;100503.75;;;10.21;56.80
66560;BME280;53413;49.878;8.142;2023-03-03T13:55:31;100489.03;;;10.16;57.33
66560;BME280;53413;49.878;8.142;2023-03-03T14:01:03;100500.44;;;10.15;57.14
66560;BME280;53413;49.878;8.142;2023-03-03T14:06:26;100487.16;;;10.22;56.55
66560;BME280;53413;49.878;8.142;2023-03-03T14:09:10;100481.22;;;10.15;56.90
66560;BME280;53413;49.878;8.142;2023-03-03T14:11:49;100482.81;;;10.21;57.21
66560;BME280;53413;49.878;8.142;2023-03-03T14:14:41;100480.16;;;10.22;57.49
66560;BME280;53413;49.878;8.142;2023-03-03T14:17:28;100473.06;;;10.26;57.46
66560;BME280;53413;49.878;8.142;2023-03-03T14:20:25;100478.34;;;10.24;56.65
66560;BME280;53413;49.878;8.142;2023-03-03T14:22:58;100479.44;;;10.17;56.69
66560;BME280;53413;49.878;8.142;2023-03-03T14:25:25;100480.41;;;10.13;56.49
66560;BME280;53413;49.878;8.142;2023-03-03T14:28:07;100471.84;;;10.08;56.83
66560;BME280;53413;49.878;8.142;2023-03-03T14:30:39;100479.69;;;10.08;57.44
66560;BME280;53413;49.878;8.142;2023-03-03T14:35:38;100474.41;;;10.09;57.18
66560;BME280;53413;49.878;8.142;2023-03-03T14:38:35;100468.19;;;10.13;57.14
66560;BME280;53413;49.878;8.142;2023-03-03T14:49:05;100462.47;;;9.99;57.21
66560;BME280;53413;49.878;8.142;2023-03-03T14:51:43;100466.22;;;9.90;57.45
66560;BME280;53413;49.878;8.142;2023-03-03T14:54:23;100472.41;;;9.88;57.74
66560;BME280;53413;49.878;8.142;2023-03-03T14:57:12;100467.38;;;9.80;57.73
66560;BME280;53413;49.878;8.142;2023-03-03T14:59:39;100463.31;;;9.69;57.61
66560;BME280;53413;49.878;8.142;2023-03-03T15:04:45;100471.41;;;9.60;58.18
66560;BME280;53413;49.878;8.142;2023-03-03T15:09:52;100464.09;;;9.40;58.81
66560;BME280;53413;49.878;8.142;2023-03-03T15:25:58;100459.38;;;8.84;60.12
66560;BME280;53413;49.878;8.142;2023-03-03T15:28:44;100464.84;;;8.73;59.93
66560;BME280;53413;49.878;8.142;2023-03-03T15:33:49;100465.22;;;8.57;60.30
66560;BME280;53413;49.878;8.142;2023-03-03T15:36:38;100467.16;;;8.47;60.09
66560;BME280;53413;49.878;8.142;2023-03-03T15:41:43;100464.94;;;8.29;60.34
66560;BME280;53413;49.878;8.142;2023-03-03T15:51:54;100458.69;;;7.92;61.29
66560;BME280;53413;49.878;8.142;2023-03-03T15:54:51;100463.28;;;7.81;61.14
66560;BME280;53413;49.878;8.142;2023-03-03T15:57:31;100459.13;;;7.70;61.40
66560;BME280;53413;49.878;8.142;2023-03-03T16:03:22;100467.34;;;7.49;61.74
66560;BME280;53413;49.878;8.142;2023-03-03T16:05:56;100468.38;;;7.40;61.76
66560;BME280;53413;49.878;8.142;2023-03-03T16:08:38;100466.78;;;7.31;62.28
66560;BME280;53413;49.878;8.142;2023-03-03T16:14:12;100464.47;;;7.14;62.08
66560;BME280;53413;49.878;8.142;2023-03-03T16:17:11;100472.44;;;7.05;62.24
66560;BME280;53413;49.878;8.142;2023-03-03T16:27:57;100480.09;;;6.59;62.40
66560;BME280;53413;49.878;8.142;2023-03-03T16:30:27;100481.09;;;6.47;62.69
66560;BME280;53413;49.878;8.142;2023-03-03T16:33:10;100487.34;;;6.34;63.31
66560;BME280;53413;49.878;8.142;2023-03-03T16:35:43;100490.09;;;6.23;63.32
66560;BME280;53413;49.878;8.142;2023-03-03T16:38:25;100485.91;;;6.11;63.18
66560;BME280;53413;49.878;8.142;2023-03-03T16:40:57;100492.13;;;5.99;63.92
66560;BME280;53413;49.878;8.142;2023-03-03T16:43:45;100490.47;;;5.88;63.73
66560;BME280;53413;49.878;8.142;2023-03-03T16:51:48;100496.91;;;5.52;64.77
66560;BME280;53413;49.878;8.142;2023-03-03T16:57:22;100500.59;;;5.27;65.82